Time;durP1;ratioP1;P1;durP2;ratioP2;P2;SDS_P1;SDS_P2;PMS_P1;PMS_P2;Temp;Humidity;BMP_temperature;BMP_pressure;BME280_temperature;BME280_humidity;BME280_pressure;Samples;Min_cycle;Max_cycle;Signal;HPM_P1;HPM_P2
2023/12/15 00:01:05;;;;;;;44.55;19.95;;;;;;;;;;5070111;28;20072;-64
2023/12/15 00:03:31;;;;;;;48.42;20.52;;;;;;;;;;5064584;28;20064;-64
2023/12/15 00:05:57;;;;;;;42.30;19.10;;;;;;;;;;5059922;28;20126;-64
2023/12/15 00:08:24;;;;;;;41.88;20.10;;;;;;;;;;5070468;28;20487;-64
2023/12/15 00:10:50;;;;;;;43.28;20.05;;;;;;;;;;5069411;28;20060;-64
2023/12/15 00:13:16;;;;;;;46.97;20.00;;;;;;;;;;5061278;28;20118;-64
2023/12/15 00:15:42;;;;;;;44.38;20.88;;;;;;;;;;5070915;28;20047;-64
2023/12/15 00:18:08;;;;;;;43.90;20.50;;;;;;;;;;5069734;28;20075;-64
2023/12/15 00:20:34;;;;;;;43.63;20.00;;;;;;;;;;5065197;28;20117;-64
2023/12/15 00:23:00;;;;;;;40.90;19.95;;;;;;;;;;5056070;28;20566;-64
2023/12/15 00:25:26;;;;;;;43.30;19.65;;;;;;;;;;5064980;28;20036;-64
2023/12/15 00:27:52;;;;;;;51.30;21.98;;;;;;;;;;5056959;28;20084;-64
2023/12/15 00:30:18;;;;;;;48.97;20.85;;;;;;;;;;5057136;28;20567;-64
2023/12/15 00:32:45;;;;;;;45.95;21.35;;;;;;;;;;5063559;28;20116;-64
2023/12/15 00:35:11;;;;;;;46.15;20.60;;;;;;;;;;5044355;28;20068;-64
2023/12/15 00:37:36;;;;;;;47.08;20.38;;;;;;;;;;5063876;28;20463;-64
2023/12/15 00:40:03;;;;;;;44.60;20.75;;;;;;;;;;5059027;28;20044;-64
2023/12/15 00:42:28;;;;;;;45.38;21.00;;;;;;;;;;5036522;28;20048;-64
2023/12/15 00:44:56;;;;;;;49.00;20.92;;;;;;;;;;5068177;28;20036;-64
2023/12/15 00:47:22;;;;;;;50.28;20.88;;;;;;;;;;5070704;28;20071;-64
2023/12/15 00:49:48;;;;;;;45.45;20.80;;;;;;;;;;5058228;28;20036;-64
2023/12/15 00:52:14;;;;;;;47.47;20.67;;;;;;;;;;5072010;28;20055;-64
2023/12/15 00:54:40;;;;;;;46.72;21.85;;;;;;;;;;5070945;28;20036;-64
2023/12/15 00:57:06;;;;;;;51.80;21.65;;;;;;;;;;5062525;28;21363;-64
2023/12/15 00:59:32;;;;;;;47.40;21.85;;;;;;;;;;5056420;28;20056;-64
2023/12/15 01:01:58;;;;;;;53.97;22.55;;;;;;;;;;5063400;28;20080;-64
2023/12/15 01:04:24;;;;;;;48.63;21.70;;;;;;;;;;5072037;28;20519;-64
2023/12/15 01:06:50;;;;;;;55.70;23.60;;;;;;;;;;5067210;28;20054;-64
2023/12/15 01:09:16;;;;;;;53.85;22.77;;;;;;;;;;5070171;28;20201;-64
2023/12/15 01:11:42;;;;;;;47.75;22.73;;;;;;;;;;5073570;28;20041;-64
2023/12/15 01:14:08;;;;;;;50.83;22.20;;;;;;;;;;5073182;28;20045;-64
2023/12/15 01:16:34;;;;;;;45.05;21.73;;;;;;;;;;5065025;28;20032;-64
2023/12/15 01:19:00;;;;;;;54.33;23.35;;;;;;;;;;5067671;28;20456;-64
2023/12/15 01:21:26;;;;;;;51.22;22.23;;;;;;;;;;5073274;28;20136;-64
2023/12/15 01:23:52;;;;;;;44.45;22.05;;;;;;;;;;5073535;28;20032;-64
2023/12/15 01:26:18;;;;;;;58.60;24.67;;;;;;;;;;5065453;28;20047;-64
2023/12/15 01:28:44;;;;;;;54.63;22.85;;;;;;;;;;5070586;28;20033;-64
2023/12/15 01:31:10;;;;;;;55.75;23.75;;;;;;;;;;5070114;28;20120;-64
2023/12/15 01:33:36;;;;;;;57.35;23.55;;;;;;;;;;5065995;28;20068;-64
2023/12/15 01:36:02;;;;;;;56.83;23.98;;;;;;;;;;5060360;28;20056;-64
2023/12/15 01:38:28;;;;;;;62.63;25.55;;;;;;;;;;5061902;28;20045;-64
2023/12/15 01:40:54;;;;;;;53.70;24.05;;;;;;;;;;5068310;28;20627;-64
2023/12/15 01:43:20;;;;;;;60.30;24.92;;;;;;;;;;5069125;28;20086;-64
2023/12/15 01:45:46;;;;;;;61.00;26.10;;;;;;;;;;5071244;28;20075;-64
2023/12/15 01:48:12;;;;;;;58.05;25.35;;;;;;;;;;5072160;28;20064;-64
2023/12/15 01:50:39;;;;;;;62.58;24.98;;;;;;;;;;5073139;28;20142;-64
2023/12/15 01:53:05;;;;;;;64.35;26.27;;;;;;;;;;5070170;28;20039;-64
2023/12/15 01:55:31;;;;;;;55.05;25.45;;;;;;;;;;5063295;28;20040;-64
2023/12/15 01:57:57;;;;;;;56.30;25.27;;;;;;;;;;5057745;28;20144;-64
2023/12/15 02:00:23;;;;;;;56.22;25.38;;;;;;;;;;5068170;28;20036;-64
2023/12/15 02:02:49;;;;;;;60.90;25.05;;;;;;;;;;5065382;28;20044;-64
2023/12/15 02:05:15;;;;;;;62.58;26.33;;;;;;;;;;5069521;28;20555;-64
2023/12/15 02:07:41;;;;;;;64.65;27.42;;;;;;;;;;5065775;28;20112;-64
2023/12/15 02:10:07;;;;;;;62.38;27.33;;;;;;;;;;5061037;28;20075;-64
2023/12/15 02:12:33;;;;;;;68.22;26.98;;;;;;;;;;5071297;28;20043;-64
2023/12/15 02:14:59;;;;;;;64.53;27.90;;;;;;;;;;5071737;28;20725;-64
2023/12/15 02:17:25;;;;;;;62.10;26.80;;;;;;;;;;5063579;28;20048;-64
2023/12/15 02:19:51;;;;;;;66.10;27.13;;;;;;;;;;5064512;28;20045;-64
2023/12/15 02:22:17;;;;;;;70.00;28.13;;;;;;;;;;5059450;28;20045;-64
2023/12/15 02:24:43;;;;;;;72.78;27.75;;;;;;;;;;5057897;28;20092;-64
2023/12/15 02:27:09;;;;;;;63.78;27.20;;;;;;;;;;5062299;28;20064;-64
2023/12/15 02:29:35;;;;;;;64.50;27.00;;;;;;;;;;5071892;28;20386;-64
2023/12/15 02:32:01;;;;;;;68.47;28.80;;;;;;;;;;5072397;28;20171;-64
2023/12/15 02:34:27;;;;;;;65.03;27.60;;;;;;;;;;5063303;28;20520;-64
2023/12/15 02:36:53;;;;;;;61.45;26.30;;;;;;;;;;5057102;28;20045;-64
2023/12/15 02:39:19;;;;;;;59.63;26.15;;;;;;;;;;5067931;28;20044;-64
2023/12/15 02:41:45;;;;;;;67.95;27.98;;;;;;;;;;5071966;28;20043;-64
2023/12/15 02:44:11;;;;;;;66.93;28.63;;;;;;;;;;5064537;28;20560;-64
2023/12/15 02:46:37;;;;;;;65.97;28.75;;;;;;;;;;5058929;28;20120;-64
2023/12/15 02:49:03;;;;;;;71.28;29.05;;;;;;;;;;5069862;28;20079;-64
2023/12/15 02:51:30;;;;;;;70.45;28.33;;;;;;;;;;5057322;28;20044;-64
2023/12/15 02:53:59;;;;;;;62.75;27.55;;;;;;;;;;5075469;28;20447;-64
2023/12/15 02:56:26;;;;;;;65.60;28.02;;;;;;;;;;5067212;28;20044;-64
2023/12/15 02:58:52;;;;;;;71.55;29.38;;;;;;;;;;5067488;28;20080;-64
2023/12/15 03:01:18;;;;;;;66.53;27.45;;;;;;;;;;5070514;28;20044;-63
2023/12/15 03:03:44;;;;;;;79.95;31.25;;;;;;;;;;5075526;28;20062;-65
2023/12/15 03:06:10;;;;;;;74.47;29.10;;;;;;;;;;5083720;28;20076;-66
2023/12/15 03:08:36;;;;;;;76.55;29.25;;;;;;;;;;5095687;22;20036;-72
2023/12/15 03:11:02;;;;;;;73.03;29.65;;;;;;;;;;5070922;28;20040;-72
2023/12/15 03:13:29;;;;;;;76.82;30.40;;;;;;;;;;5066553;28;20213;-72
2023/12/15 03:16:02;;;;;;;74.38;29.67;;;;;;;;;;5071397;28;20049;-72
2023/12/15 03:18:28;;;;;;;79.18;30.80;;;;;;;;;;5082884;28;20409;-72
2023/12/15 03:20:54;;;;;;;71.97;29.65;;;;;;;;;;5091673;28;20036;-72
2023/12/15 03:23:20;;;;;;;82.20;30.83;;;;;;;;;;5084222;28;20472;-72
2023/12/15 03:25:46;;;;;;;82.57;30.80;;;;;;;;;;5070696;28;20041;-72
2023/12/15 03:28:12;;;;;;;72.95;29.23;;;;;;;;;;5071147;28;20045;-72
2023/12/15 03:30:38;;;;;;;71.18;28.35;;;;;;;;;;5072415;28;20090;-72
2023/12/15 03:33:04;;;;;;;83.18;31.08;;;;;;;;;;5071045;28;20107;-72
2023/12/15 03:35:30;;;;;;;76.63;29.73;;;;;;;;;;5070089;28;20044;-72
2023/12/15 03:37:56;;;;;;;72.65;29.13;;;;;;;;;;5077849;28;20040;-72
2023/12/15 03:40:22;;;;;;;79.80;30.25;;;;;;;;;;5091191;28;20044;-72
2023/12/15 03:42:48;;;;;;;79.63;30.55;;;;;;;;;;5086174;28;20078;-72
2023/12/15 03:45:14;;;;;;;90.60;31.48;;;;;;;;;;5072529;28;20044;-72
2023/12/15 03:47:40;;;;;;;78.45;29.17;;;;;;;;;;5069536;28;20115;-72
2023/12/15 03:50:06;;;;;;;86.55;30.65;;;;;;;;;;5065827;28;20055;-72
2023/12/15 03:52:33;;;;;;;85.05;31.00;;;;;;;;;;5070329;28;20045;-72
2023/12/15 03:54:59;;;;;;;89.07;30.25;;;;;;;;;;5069269;28;20044;-72
2023/12/15 03:57:25;;;;;;;84.90;30.70;;;;;;;;;;5070768;28;20108;-71
2023/12/15 03:59:51;;;;;;;86.00;30.45;;;;;;;;;;5071533;28;20503;-71
2023/12/15 04:02:19;;;;;;;78.00;29.08;;;;;;;;;;5070085;28;20040;-71
2023/12/15 04:04:45;;;;;;;85.57;31.08;;;;;;;;;;5062864;28;20521;-71
2023/12/15 04:07:11;;;;;;;90.00;31.50;;;;;;;;;;5071115;28;20063;-71
2023/12/15 04:09:37;;;;;;;87.95;30.45;;;;;;;;;;5052552;28;20048;-71
2023/12/15 04:12:03;;;;;;;83.75;30.45;;;;;;;;;;5079775;28;20123;-71
2023/12/15 04:14:29;;;;;;;87.28;30.50;;;;;;;;;;5074064;28;20161;-71
2023/12/15 04:16:55;;;;;;;90.60;31.00;;;;;;;;;;5079850;28;20033;-71
2023/12/15 04:19:21;;;;;;;91.30;31.00;;;;;;;;;;5083498;28;20043;-71
2023/12/15 04:21:47;;;;;;;87.28;30.38;;;;;;;;;;5073066;28;20035;-71
2023/12/15 04:24:13;;;;;;;93.05;31.95;;;;;;;;;;5073985;28;20514;-71
2023/12/15 04:26:39;;;;;;;95.15;31.95;;;;;;;;;;5073644;28;20037;-72
2023/12/15 04:29:06;;;;;;;88.82;29.02;;;;;;;;;;5075182;28;20504;-72
2023/12/15 04:31:31;;;;;;;95.05;32.75;;;;;;;;;;5074111;28;20159;-72
2023/12/15 04:33:57;;;;;;;97.25;31.50;;;;;;;;;;5078112;28;20403;-72
2023/12/15 04:36:23;;;;;;;99.25;31.55;;;;;;;;;;5070894;28;20037;-72
2023/12/15 04:38:49;;;;;;;88.90;30.70;;;;;;;;;;5075274;28;20082;-72
2023/12/15 04:41:19;;;;;;;94.43;30.83;;;;;;;;;;5083627;28;20119;-72
2023/12/15 04:43:45;;;;;;;108.10;32.72;;;;;;;;;;5074640;28;20040;-72
2023/12/15 04:46:11;;;;;;;115.10;32.80;;;;;;;;;;5090260;28;20502;-72
2023/12/15 04:48:38;;;;;;;103.80;33.20;;;;;;;;;;5074570;28;20047;-72
2023/12/15 04:51:04;;;;;;;98.03;32.53;;;;;;;;;;5068515;28;20438;-72
2023/12/15 04:53:30;;;;;;;102.82;30.77;;;;;;;;;;5075147;28;20036;-72
2023/12/15 04:55:56;;;;;;;96.25;31.02;;;;;;;;;;5076897;28;20090;-72
2023/12/15 04:58:22;;;;;;;96.45;30.17;;;;;;;;;;5073853;28;20055;-72
2023/12/15 05:00:48;;;;;;;105.00;32.67;;;;;;;;;;5082305;28;20040;-72
2023/12/15 05:03:14;;;;;;;110.97;32.13;;;;;;;;;;5082716;28;20456;-72
2023/12/15 05:05:43;;;;;;;98.57;30.88;;;;;;;;;;5064307;28;20036;-72
2023/12/15 05:08:09;;;;;;;109.00;32.20;;;;;;;;;;5055054;28;20039;-72
2023/12/15 05:10:35;;;;;;;94.47;29.05;;;;;;;;;;5075509;28;20406;-72
2023/12/15 05:13:01;;;;;;;99.43;31.05;;;;;;;;;;5073700;28;20100;-72
2023/12/15 05:15:27;;;;;;;98.60;29.67;;;;;;;;;;5070713;28;20039;-72
2023/12/15 05:17:53;;;;;;;99.80;30.65;;;;;;;;;;5061777;28;20044;-72
2023/12/15 05:20:20;;;;;;;104.38;30.00;;;;;;;;;;5079720;28;20040;-72
2023/12/15 05:22:46;;;;;;;95.97;30.70;;;;;;;;;;5075539;28;20045;-72
2023/12/15 05:25:12;;;;;;;99.70;30.15;;;;;;;;;;5087541;28;20081;-72
2023/12/15 05:27:38;;;;;;;104.70;31.23;;;;;;;;;;5073875;28;20498;-72
2023/12/15 05:30:04;;;;;;;101.68;29.38;;;;;;;;;;5073555;28;20041;-72
2023/12/15 05:32:30;;;;;;;102.63;30.60;;;;;;;;;;5093274;28;20037;-72
2023/12/15 05:34:56;;;;;;;115.35;31.38;;;;;;;;;;5093985;28;20082;-72
2023/12/15 05:37:22;;;;;;;111.65;31.92;;;;;;;;;;5076658;28;20513;-72
2023/12/15 05:39:48;;;;;;;93.75;28.10;;;;;;;;;;5078882;28;20425;-72
2023/12/15 05:42:14;;;;;;;105.40;30.75;;;;;;;;;;5072510;28;20040;-72
2023/12/15 05:44:40;;;;;;;97.95;30.60;;;;;;;;;;5078959;28;20070;-72
2023/12/15 05:47:07;;;;;;;102.70;30.80;;;;;;;;;;5083059;28;20036;-72
2023/12/15 05:49:34;;;;;;;104.65;30.95;;;;;;;;;;5068871;28;20114;-72
2023/12/15 05:52:00;;;;;;;102.90;32.00;;;;;;;;;;5071945;28;20056;-72
2023/12/15 05:54:26;;;;;;;105.85;31.40;;;;;;;;;;5058384;28;20064;-72
2023/12/15 05:56:52;;;;;;;100.85;30.90;;;;;;;;;;5064822;28;20075;-71
2023/12/15 05:59:18;;;;;;;120.20;32.15;;;;;;;;;;5065060;28;20063;-71
2023/12/15 06:01:44;;;;;;;112.30;30.10;;;;;;;;;;5064063;28;20600;-71
2023/12/15 06:04:10;;;;;;;102.38;31.92;;;;;;;;;;5062679;28;20067;-71
2023/12/15 06:06:35;;;;;;;113.30;31.77;;;;;;;;;;5061896;28;20037;-71
2023/12/15 06:09:02;;;;;;;142.55;34.67;;;;;;;;;;5065789;28;20032;-71
2023/12/15 06:11:28;;;;;;;125.05;32.17;;;;;;;;;;5064804;28;20037;-72
2023/12/15 06:13:54;;;;;;;123.45;32.53;;;;;;;;;;5063846;28;20044;-72
2023/12/15 06:16:21;;;;;;;108.43;29.13;;;;;;;;;;5064476;28;20048;-72
2023/12/15 06:18:49;;;;;;;106.75;30.98;;;;;;;;;;5063699;28;20048;-72
2023/12/15 06:21:22;;;;;;;97.78;27.98;;;;;;;;;;5065408;28;20068;-72
2023/12/15 06:23:48;;;;;;;109.45;30.15;;;;;;;;;;5065009;28;20041;-72
2023/12/15 06:26:18;;;;;;;117.00;30.33;;;;;;;;;;5064525;28;20037;-72
2023/12/15 06:28:44;;;;;;;117.80;29.92;;;;;;;;;;5064051;28;20033;-72
2023/12/15 06:31:10;;;;;;;110.82;29.77;;;;;;;;;;5064366;28;20033;-72
2023/12/15 06:33:36;;;;;;;108.85;28.50;;;;;;;;;;5064536;28;20044;-71
2023/12/15 06:36:02;;;;;;;107.63;29.90;;;;;;;;;;5065089;28;20045;-71
2023/12/15 06:38:28;;;;;;;113.97;29.23;;;;;;;;;;5063269;28;20032;-71
2023/12/15 06:40:54;;;;;;;112.13;30.10;;;;;;;;;;5069336;28;20073;-71
2023/12/15 06:43:20;;;;;;;110.22;30.58;;;;;;;;;;5064058;28;20044;-71
2023/12/15 06:45:46;;;;;;;108.90;29.48;;;;;;;;;;5066118;28;20040;-71
2023/12/15 06:48:12;;;;;;;108.03;29.48;;;;;;;;;;5065894;28;20087;-71
2023/12/15 06:50:38;;;;;;;122.07;30.02;;;;;;;;;;5065988;28;20079;-71
2023/12/15 06:53:04;;;;;;;107.25;29.73;;;;;;;;;;5065126;28;20084;-71
2023/12/15 06:55:30;;;;;;;118.25;30.10;;;;;;;;;;5066246;28;20040;-71
2023/12/15 06:57:56;;;;;;;113.82;30.58;;;;;;;;;;5063734;28;20037;-71
2023/12/15 07:00:22;;;;;;;124.80;30.38;;;;;;;;;;5065654;28;20490;-71
2023/12/15 07:02:48;;;;;;;118.40;30.77;;;;;;;;;;5063958;28;20040;-71
2023/12/15 07:05:14;;;;;;;112.50;28.17;;;;;;;;;;5066156;28;20059;-71
2023/12/15 07:07:40;;;;;;;107.70;30.30;;;;;;;;;;5064661;28;20082;-72
2023/12/15 07:10:06;;;;;;;110.63;27.92;;;;;;;;;;5068807;28;20040;-71
2023/12/15 07:12:32;;;;;;;120.70;29.80;;;;;;;;;;5065229;28;20541;-71
2023/12/15 07:14:58;;;;;;;123.60;30.63;;;;;;;;;;5063179;28;20064;-71
2023/12/15 07:17:24;;;;;;;125.30;30.67;;;;;;;;;;5061829;28;20068;-71
2023/12/15 07:19:50;;;;;;;123.45;30.30;;;;;;;;;;5063545;28;20028;-71
2023/12/15 07:22:16;;;;;;;101.50;27.02;;;;;;;;;;5063360;28;20458;-71
2023/12/15 07:24:42;;;;;;;110.18;30.30;;;;;;;;;;5061761;28;20036;-71
2023/12/15 07:27:08;;;;;;;118.18;31.70;;;;;;;;;;5065317;28;20062;-71
2023/12/15 07:29:34;;;;;;;125.53;31.45;;;;;;;;;;5062333;28;20491;-71
2023/12/15 07:32:00;;;;;;;104.82;28.27;;;;;;;;;;5060902;28;20432;-71
2023/12/15 07:34:26;;;;;;;115.07;30.75;;;;;;;;;;5055977;28;20032;-71
2023/12/15 07:36:52;;;;;;;114.30;30.73;;;;;;;;;;5059167;28;20094;-72
2023/12/15 07:39:21;;;;;;;112.60;30.25;;;;;;;;;;5069312;28;20037;-72
2023/12/15 07:41:48;;;;;;;143.18;33.88;;;;;;;;;;5054942;28;20423;-72
2023/12/15 07:44:14;;;;;;;122.82;31.98;;;;;;;;;;5071862;28;20513;-72
2023/12/15 07:46:41;;;;;;;110.55;29.30;;;;;;;;;;5072730;28;20032;-71
2023/12/15 07:49:07;;;;;;;97.25;28.38;;;;;;;;;;5071705;28;20032;-71
2023/12/15 07:51:33;;;;;;;122.93;31.20;;;;;;;;;;5072436;28;20425;-71
2023/12/15 07:53:59;;;;;;;118.03;29.67;;;;;;;;;;5068141;28;20040;-71
2023/12/15 07:56:26;;;;;;;109.15;29.38;;;;;;;;;;5073230;28;20090;-71
2023/12/15 07:58:52;;;;;;;98.20;27.77;;;;;;;;;;5070590;28;20486;-71
2023/12/15 08:01:19;;;;;;;107.40;29.85;;;;;;;;;;5072750;28;20124;-71
2023/12/15 08:03:45;;;;;;;106.53;30.35;;;;;;;;;;5067324;28;20091;-72
2023/12/15 08:06:12;;;;;;;99.80;28.35;;;;;;;;;;5068086;28;20102;-71
2023/12/15 08:08:39;;;;;;;114.97;29.98;;;;;;;;;;5069972;28;20039;-71
2023/12/15 08:11:05;;;;;;;108.25;29.20;;;;;;;;;;5070926;28;20036;-72
2023/12/15 08:13:31;;;;;;;103.93;27.08;;;;;;;;;;5068460;28;20060;-72
2023/12/15 08:15:57;;;;;;;100.18;29.58;;;;;;;;;;5066288;28;20051;-72
2023/12/15 08:18:23;;;;;;;113.60;30.25;;;;;;;;;;5071824;28;20075;-72
2023/12/15 08:20:50;;;;;;;93.50;27.50;;;;;;;;;;5073024;28;20079;-72
2023/12/15 08:23:16;;;;;;;92.70;28.63;;;;;;;;;;5064597;28;20049;-71
2023/12/15 08:25:42;;;;;;;93.78;27.33;;;;;;;;;;5078565;28;20362;-71
2023/12/15 08:28:11;;;;;;;84.22;25.23;;;;;;;;;;5077313;28;20085;-71
2023/12/15 08:30:37;;;;;;;82.13;24.65;;;;;;;;;;5074235;28;20101;-71
2023/12/15 08:33:03;;;;;;;82.72;24.63;;;;;;;;;;5080015;28;20557;-71
2023/12/15 08:35:29;;;;;;;75.60;24.58;;;;;;;;;;5075271;28;20055;-72
2023/12/15 08:37:56;;;;;;;85.22;26.25;;;;;;;;;;5074709;28;20045;-72
2023/12/15 08:40:22;;;;;;;83.03;25.80;;;;;;;;;;5080412;28;20044;-71
2023/12/15 08:42:48;;;;;;;90.90;26.20;;;;;;;;;;5079483;28;20032;-71
2023/12/15 08:45:14;;;;;;;80.35;25.35;;;;;;;;;;5077911;28;20044;-71
2023/12/15 08:47:40;;;;;;;91.13;25.70;;;;;;;;;;5078052;28;20036;-72
2023/12/15 08:50:06;;;;;;;75.65;24.90;;;;;;;;;;5078861;28;20040;-72
2023/12/15 08:52:32;;;;;;;77.93;24.85;;;;;;;;;;5053228;28;20036;-72
2023/12/15 08:54:58;;;;;;;80.07;24.80;;;;;;;;;;5075181;28;20028;-72
2023/12/15 08:57:24;;;;;;;67.85;24.05;;;;;;;;;;5067873;28;20559;-72
2023/12/15 08:59:51;;;;;;;71.07;24.13;;;;;;;;;;5078349;28;20029;-72
2023/12/15 09:02:17;;;;;;;69.45;23.55;;;;;;;;;;5079814;28;20410;-72
2023/12/15 09:04:43;;;;;;;73.18;23.58;;;;;;;;;;5078452;28;20040;-72
2023/12/15 09:09:45;;;;;;;70.88;22.55;;;;;;;;;;5059942;28;20044;-70
2023/12/15 09:12:11;;;;;;;67.20;21.92;;;;;;;;;;5041973;28;20040;-68
2023/12/15 09:14:38;;;;;;;67.00;22.63;;;;;;;;;;5055970;28;20041;-69
2023/12/15 09:19:36;;;;;;;62.10;20.83;;;;;;;;;;5062352;28;20094;-62
2023/12/15 09:22:02;;;;;;;63.83;22.17;;;;;;;;;;5067464;28;20037;-62
2023/12/15 09:24:28;;;;;;;60.22;21.33;;;;;;;;;;5065834;28;20043;-65
2023/12/15 09:26:54;;;;;;;58.92;20.88;;;;;;;;;;5017658;28;20047;-64
2023/12/15 09:29:20;;;;;;;57.42;19.88;;;;;;;;;;5047436;28;21400;-63
2023/12/15 09:31:46;;;;;;;57.30;18.45;;;;;;;;;;5042091;28;20041;-63
2023/12/15 09:34:13;;;;;;;53.33;18.23;;;;;;;;;;5038842;28;20443;-63
2023/12/15 09:36:39;;;;;;;56.67;18.25;;;;;;;;;;5049792;28;20040;-63
2023/12/15 09:39:05;;;;;;;52.75;18.38;;;;;;;;;;5044388;28;20049;-63
2023/12/15 09:41:32;;;;;;;46.33;17.52;;;;;;;;;;5065939;28;20135;-63
2023/12/15 09:43:59;;;;;;;48.60;17.75;;;;;;;;;;5069210;28;20033;-63
2023/12/15 09:46:25;;;;;;;54.33;18.20;;;;;;;;;;5046089;28;20037;-63
2023/12/15 09:48:52;;;;;;;53.75;17.67;;;;;;;;;;5046764;28;20060;-63
2023/12/15 09:51:23;;;;;;;54.80;17.15;;;;;;;;;;5059845;28;20036;-63
2023/12/15 09:53:49;;;;;;;44.80;15.00;;;;;;;;;;5072668;28;20028;-63
2023/12/15 09:56:15;;;;;;;43.70;15.52;;;;;;;;;;5063403;28;20468;-63
2023/12/15 09:58:42;;;;;;;50.33;16.60;;;;;;;;;;5061236;28;20049;-63
2023/12/15 10:01:08;;;;;;;43.80;15.40;;;;;;;;;;5040515;28;20049;-63
2023/12/15 10:03:34;;;;;;;47.35;14.20;;;;;;;;;;5045025;28;20124;-63
2023/12/15 10:06:00;;;;;;;47.20;14.68;;;;;;;;;;5046213;28;20132;-63
2023/12/15 10:08:38;;;;;;;48.15;15.38;;;;;;;;;;5063071;28;20037;-63
2023/12/15 10:11:05;;;;;;;45.92;14.50;;;;;;;;;;5058936;28;20033;-63
2023/12/15 10:13:31;;;;;;;41.05;14.55;;;;;;;;;;5045154;28;20049;-63
2023/12/15 10:15:57;;;;;;;40.30;14.68;;;;;;;;;;5047375;28;20460;-63
2023/12/15 10:18:24;;;;;;;48.10;14.48;;;;;;;;;;5044074;28;20132;-63
2023/12/15 10:20:49;;;;;;;45.50;14.73;;;;;;;;;;5064223;28;20075;-63
2023/12/15 10:23:16;;;;;;;44.17;13.35;;;;;;;;;;5045187;28;20076;-63
2023/12/15 10:25:48;;;;;;;43.70;14.40;;;;;;;;;;5062424;28;20051;-63
2023/12/15 10:28:15;;;;;;;38.67;13.30;;;;;;;;;;5046173;28;20427;-63
2023/12/15 10:30:41;;;;;;;41.72;13.15;;;;;;;;;;5060535;28;20033;-63
2023/12/15 10:33:07;;;;;;;39.05;12.98;;;;;;;;;;5040382;28;20176;-63
2023/12/15 10:35:35;;;;;;;52.10;12.95;;;;;;;;;;5062584;28;20048;-63
2023/12/15 10:38:01;;;;;;;41.90;11.43;;;;;;;;;;5055191;28;20037;-63
2023/12/15 10:40:28;;;;;;;47.00;11.25;;;;;;;;;;5045543;28;20413;-63
2023/12/15 10:42:54;;;;;;;39.65;10.95;;;;;;;;;;5062373;28;20078;-63
2023/12/15 10:45:21;;;;;;;35.22;11.05;;;;;;;;;;5051512;28;20048;-63
2023/12/15 10:47:48;;;;;;;42.40;10.68;;;;;;;;;;5059807;28;20357;-63
2023/12/15 10:50:14;;;;;;;34.05;9.52;;;;;;;;;;5041772;28;20048;-63
2023/12/15 10:52:40;;;;;;;30.08;10.02;;;;;;;;;;5063013;28;20424;-63
2023/12/15 10:55:07;;;;;;;41.30;10.52;;;;;;;;;;5063392;28;20127;-64
2023/12/15 10:57:33;;;;;;;37.47;9.27;;;;;;;;;;5054269;28;20041;-63
2023/12/15 11:00:04;;;;;;;33.72;9.40;;;;;;;;;;5058245;28;20044;-62
2023/12/15 11:02:31;;;;;;;33.13;8.52;;;;;;;;;;5062963;28;20080;-63
2023/12/15 11:04:59;;;;;;;35.92;10.10;;;;;;;;;;5059155;28;20090;-63
2023/12/15 11:07:25;;;;;;;38.55;8.93;;;;;;;;;;5060166;28;20040;-63
2023/12/15 11:09:51;;;;;;;32.67;8.88;;;;;;;;;;5041586;28;20045;-63
2023/12/15 11:12:33;;;;;;;31.98;9.05;;;;;;;;;;5059583;28;20067;-63
2023/12/15 11:14:59;;;;;;;33.75;9.13;;;;;;;;;;5041071;28;20506;-63
2023/12/15 11:17:26;;;;;;;34.05;9.25;;;;;;;;;;5062666;28;20040;-63
2023/12/15 11:19:57;;;;;;;28.75;8.45;;;;;;;;;;5063249;28;20040;-63
2023/12/15 11:22:23;;;;;;;31.17;8.88;;;;;;;;;;5048026;28;20055;-63
2023/12/15 11:24:49;;;;;;;29.38;7.63;;;;;;;;;;5063039;28;20281;-63
2023/12/15 11:27:15;;;;;;;39.70;8.57;;;;;;;;;;5061866;28;20407;-63
2023/12/15 11:29:42;;;;;;;34.45;8.63;;;;;;;;;;5061783;28;20033;-62
2023/12/15 11:32:27;;;;;;;26.98;7.82;;;;;;;;;;5064425;28;20050;-63
2023/12/15 11:34:53;;;;;;;33.20;8.45;;;;;;;;;;5054534;28;20036;-63
2023/12/15 11:37:19;;;;;;;29.67;8.13;;;;;;;;;;5061932;28;20119;-63
2023/12/15 11:39:46;;;;;;;40.05;8.02;;;;;;;;;;5058735;28;20037;-64
2023/12/15 11:42:14;;;;;;;31.27;7.70;;;;;;;;;;5058942;28;20029;-63
2023/12/15 11:44:42;;;;;;;32.30;7.63;;;;;;;;;;5062725;28;20127;-63
2023/12/15 11:47:08;;;;;;;28.75;7.10;;;;;;;;;;5039796;28;20094;-63
2023/12/15 11:49:34;;;;;;;23.85;6.30;;;;;;;;;;5061042;28;20037;-63
2023/12/15 11:52:02;;;;;;;39.80;7.65;;;;;;;;;;5058087;28;20040;-63
2023/12/15 11:54:31;;;;;;;30.45;6.82;;;;;;;;;;5044984;28;20044;-63
2023/12/15 11:56:57;;;;;;;28.63;7.28;;;;;;;;;;5060897;28;20037;-63
2023/12/15 11:59:22;;;;;;;27.30;6.63;;;;;;;;;;5061649;28;20041;-63
2023/12/15 12:01:51;;;;;;;28.88;6.32;;;;;;;;;;5041526;28;20049;-64
2023/12/15 12:04:20;;;;;;;27.65;6.68;;;;;;;;;;5045589;28;20044;-64
2023/12/15 12:06:47;;;;;;;28.05;6.82;;;;;;;;;;5062237;28;20047;-63
2023/12/15 12:09:13;;;;;;;37.53;6.95;;;;;;;;;;5058802;28;20048;-63
2023/12/15 12:11:39;;;;;;;26.80;6.18;;;;;;;;;;5069262;28;20066;-63
2023/12/15 12:14:05;;;;;;;29.00;6.05;;;;;;;;;;5069887;28;20041;-63
2023/12/15 12:16:37;;;;;;;26.75;7.25;;;;;;;;;;5067318;28;20045;-64
2023/12/15 12:19:02;;;;;;;25.40;6.38;;;;;;;;;;5070081;28;20119;-63
2023/12/15 12:21:29;;;;;;;28.25;6.43;;;;;;;;;;5070295;28;20117;-63
2023/12/15 12:23:55;;;;;;;33.13;6.60;;;;;;;;;;5069713;28;20041;-63
2023/12/15 12:26:22;;;;;;;29.20;6.55;;;;;;;;;;5050938;28;20470;-63
2023/12/15 12:28:49;;;;;;;32.22;6.38;;;;;;;;;;5052234;28;20037;-63
2023/12/15 12:31:15;;;;;;;33.67;6.80;;;;;;;;;;5052480;28;20072;-63
2023/12/15 12:33:41;;;;;;;30.42;6.38;;;;;;;;;;5070287;28;20090;-63
2023/12/15 12:36:08;;;;;;;34.42;6.18;;;;;;;;;;5063953;28;20048;-64
2023/12/15 12:38:34;;;;;;;33.33;5.82;;;;;;;;;;5070796;28;20086;-63
2023/12/15 12:41:05;;;;;;;31.00;6.40;;;;;;;;;;5071202;28;20040;-64
2023/12/15 12:43:31;;;;;;;26.08;6.07;;;;;;;;;;5056530;28;20539;-63
2023/12/15 12:45:57;;;;;;;25.17;6.03;;;;;;;;;;5049620;28;20077;-63
2023/12/15 12:48:23;;;;;;;23.92;5.75;;;;;;;;;;5065883;28;20400;-63
2023/12/15 12:50:49;;;;;;;30.10;6.63;;;;;;;;;;5074514;28;20037;-63
2023/12/15 12:53:15;;;;;;;33.03;7.25;;;;;;;;;;5073676;28;20039;-63
2023/12/15 12:55:42;;;;;;;36.13;6.93;;;;;;;;;;5071573;28;20032;-63
2023/12/15 12:58:08;;;;;;;25.33;6.03;;;;;;;;;;5073724;28;20094;-63
2023/12/15 13:00:34;;;;;;;27.85;6.32;;;;;;;;;;5066525;28;20463;-63
2023/12/15 13:03:00;;;;;;;25.02;6.25;;;;;;;;;;5047632;28;20508;-63
2023/12/15 13:05:26;;;;;;;29.95;6.55;;;;;;;;;;5061664;28;20067;-63
2023/12/15 13:07:52;;;;;;;29.52;6.70;;;;;;;;;;5068424;28;20050;-64
2023/12/15 13:10:18;;;;;;;31.55;7.05;;;;;;;;;;5055780;28;20048;-63
2023/12/15 13:12:45;;;;;;;25.70;5.75;;;;;;;;;;5067078;28;20493;-63
2023/12/15 13:15:14;;;;;;;30.38;6.10;;;;;;;;;;5045970;28;20059;-63
2023/12/15 13:17:41;;;;;;;33.65;6.38;;;;;;;;;;5040399;28;20115;-63
2023/12/15 13:20:09;;;;;;;32.67;6.30;;;;;;;;;;5054607;28;20045;-63
2023/12/15 13:22:35;;;;;;;33.50;6.38;;;;;;;;;;5068174;28;20068;-63
2023/12/15 13:25:01;;;;;;;23.00;5.82;;;;;;;;;;5069520;28;20036;-63
2023/12/15 13:27:27;;;;;;;27.35;7.15;;;;;;;;;;5066076;28;20048;-63
2023/12/15 13:29:53;;;;;;;31.23;6.30;;;;;;;;;;5066187;28;20032;-63
2023/12/15 13:32:19;;;;;;;25.73;6.03;;;;;;;;;;5053196;28;20522;-63
2023/12/15 13:34:46;;;;;;;26.90;5.63;;;;;;;;;;5066803;28;20051;-63
2023/12/15 13:37:12;;;;;;;25.50;5.80;;;;;;;;;;5037828;28;20492;-63
2023/12/15 13:39:39;;;;;;;31.95;9.02;;;;;;;;;;5045654;28;20037;-64
2023/12/15 13:42:05;;;;;;;25.30;7.32;;;;;;;;;;5070657;28;20067;-63
2023/12/15 13:44:31;;;;;;;29.58;9.75;;;;;;;;;;5066551;28;20132;-63
2023/12/15 13:46:57;;;;;;;28.83;7.15;;;;;;;;;;5063090;28;20552;-63
2023/12/15 13:49:24;;;;;;;29.60;6.22;;;;;;;;;;5068034;28;20150;-63
2023/12/15 13:51:50;;;;;;;25.63;9.02;;;;;;;;;;5049467;28;20044;-63
2023/12/15 13:54:16;;;;;;;31.67;7.78;;;;;;;;;;5064184;28;20064;-63
2023/12/15 13:56:42;;;;;;;29.67;7.63;;;;;;;;;;5061057;28;20040;-63
2023/12/15 13:59:08;;;;;;;30.85;5.65;;;;;;;;;;5053784;28;20041;-63
2023/12/15 14:01:34;;;;;;;81.78;51.05;;;;;;;;;;5051239;28;20097;-63
2023/12/15 14:04:00;;;;;;;29.38;9.30;;;;;;;;;;5047140;28;20127;-63
2023/12/15 14:06:27;;;;;;;30.65;7.50;;;;;;;;;;5064700;28;20047;-62
2023/12/15 14:08:53;;;;;;;30.63;7.35;;;;;;;;;;5052365;28;20032;-63
2023/12/15 14:11:19;;;;;;;80.10;55.65;;;;;;;;;;5054867;28;20041;-63
2023/12/15 14:13:45;;;;;;;34.22;13.32;;;;;;;;;;5070298;28;20474;-63
2023/12/15 14:16:11;;;;;;;29.45;8.05;;;;;;;;;;5066543;28;20044;-63